Time;durP1;ratioP1;P1;durP2;ratioP2;P2;SDS_P1;SDS_P2;PMS_P1;PMS_P2;Temp;Humidity;BMP_temperature;BMP_pressure;BME280_temperature;BME280_humidity;BME280_pressure;Samples;Min_cycle;Max_cycle;Signal;HPM_P1;HPM_P2
2021/09/06 00:02:02;;;;;;;5.88;2.80;;;;;;;-140.79;100.00;63287.88;5319764;22;20590;-73
2021/09/06 00:04:28;;;;;;;4.90;2.72;;;;;;;-140.79;100.00;63287.88;5003748;28;20048;-73
2021/09/06 00:06:53;;;;;;;4.22;2.97;;;;;;;-140.79;100.00;63287.88;5019120;28;20036;-73
2021/09/06 00:09:19;;;;;;;4.53;2.75;;;;;;;-140.79;100.00;63287.88;5026124;28;20036;-72
2021/09/06 00:11:44;;;;;;;3.72;2.70;;;;;;;-140.79;100.00;63287.88;5026247;28;20080;-73
2021/09/06 00:14:09;;;;;;;5.05;2.75;;;;;;;-140.79;100.00;63287.88;5027020;28;20033;-73
2021/09/06 00:16:35;;;;;;;4.10;2.63;;;;;;;-140.79;100.00;63287.88;5027067;28;20033;-74
2021/09/06 00:19:00;;;;;;;4.65;2.92;;;;;;;-140.79;100.00;63287.88;5016983;28;20038;-74
2021/09/06 00:21:26;;;;;;;5.18;3.22;;;;;;;-140.79;100.00;63287.88;5006711;28;20036;-73
2021/09/06 00:23:51;;;;;;;5.10;3.03;;;;;;;-140.79;100.00;63287.88;5006195;28;20026;-73
2021/09/06 00:26:17;;;;;;;6.03;2.90;;;;;;;-140.79;100.00;63287.88;5006946;28;20038;-74
2021/09/06 00:28:42;;;;;;;4.63;3.28;;;;;;;-140.79;100.00;63287.88;5018283;28;20083;-74
2021/09/06 00:31:08;;;;;;;5.03;2.90;;;;;;;-140.79;100.00;63287.88;5026567;28;20021;-73
2021/09/06 00:33:34;;;;;;;7.22;3.00;;;;;;;-140.79;100.00;63287.88;5025033;28;20586;-74
2021/09/06 00:35:59;;;;;;;5.88;3.05;;;;;;;-140.79;100.00;63287.88;5025945;28;20029;-72
2021/09/06 00:38:25;;;;;;;5.47;3.13;;;;;;;-140.79;100.00;63287.88;5025275;28;20495;-74
2021/09/06 00:40:50;;;;;;;5.55;3.05;;;;;;;-140.79;100.00;63287.88;5025852;28;20033;-74
2021/09/06 00:43:16;;;;;;;5.13;2.95;;;;;;;-140.79;100.00;63287.88;5026376;28;20032;-73
2021/09/06 00:45:41;;;;;;;6.65;3.05;;;;;;;-140.79;100.00;63287.88;5026765;28;20445;-74
2021/09/06 00:48:07;;;;;;;5.45;3.25;;;;;;;-140.79;100.00;63287.88;5022944;28;20571;-73
2021/09/06 00:50:33;;;;;;;5.43;3.30;;;;;;;-140.79;100.00;63287.88;4971696;28;20034;-73
2021/09/06 00:52:58;;;;;;;4.82;3.17;;;;;;;-140.79;100.00;63287.88;4988536;28;20053;-73
2021/09/06 00:55:24;;;;;;;5.28;2.85;;;;;;;-140.79;100.00;63287.88;4972987;28;20025;-73
2021/09/06 00:57:49;;;;;;;6.00;3.10;;;;;;;-140.79;100.00;63287.88;5016032;28;20415;-73
2021/09/06 01:00:15;;;;;;;4.97;3.03;;;;;;;-140.79;100.00;63287.88;5026486;28;20018;-73
2021/09/06 01:02:41;;;;;;;6.70;3.83;;;;;;;-140.79;100.00;63287.88;5025712;28;20053;-74
2021/09/06 01:05:07;;;;;;;5.30;3.60;;;;;;;-140.79;100.00;63287.88;5026435;28;20029;-74
2021/09/06 01:07:32;;;;;;;4.75;2.88;;;;;;;-140.79;100.00;63287.88;5025267;28;20092;-74
2021/09/06 01:10:09;;;;;;;7.00;3.28;;;;;;;-140.79;100.00;63287.88;5008759;28;20510;-72
2021/09/06 01:12:35;;;;;;;5.93;3.17;;;;;;;-140.79;100.00;63287.88;5007594;28;20021;-72
2021/09/06 01:15:00;;;;;;;6.75;3.58;;;;;;;-140.79;100.00;63287.88;5025939;28;20025;-72
2021/09/06 01:17:25;;;;;;;7.30;3.47;;;;;;;-140.79;100.00;63287.88;5025989;28;20028;-73
2021/09/06 01:19:51;;;;;;;5.82;3.20;;;;;;;-140.79;100.00;63287.88;5008400;28;20030;-72
2021/09/06 01:22:18;;;;;;;4.93;3.17;;;;;;;-140.79;100.00;63287.88;5006002;28;20030;-71
2021/09/06 01:24:44;;;;;;;5.43;3.67;;;;;;;-140.79;100.00;63287.88;4988489;28;20415;-73
2021/09/06 01:27:10;;;;;;;4.65;3.15;;;;;;;-140.79;100.00;63287.88;5005980;28;20127;-73
2021/09/06 01:29:35;;;;;;;5.18;3.42;;;;;;;-140.79;100.00;63287.88;5025591;28;20060;-73
2021/09/06 01:32:01;;;;;;;5.80;3.50;;;;;;;-140.79;100.00;63287.88;5007742;28;20025;-73
2021/09/06 01:34:26;;;;;;;7.15;3.42;;;;;;;-140.79;100.00;63287.88;5022869;28;20037;-74
2021/09/06 01:36:51;;;;;;;8.20;3.38;;;;;;;-140.79;100.00;63287.88;5024022;28;20029;-74
2021/09/06 01:39:17;;;;;;;5.05;3.50;;;;;;;-140.79;100.00;63287.88;5025125;28;20029;-73
2021/09/06 01:41:42;;;;;;;7.07;3.75;;;;;;;-140.79;100.00;63287.88;5024657;28;20052;-73
2021/09/06 01:44:08;;;;;;;6.32;3.78;;;;;;;-140.79;100.00;63287.88;5025531;28;20021;-73
2021/09/06 01:46:34;;;;;;;5.65;3.72;;;;;;;-140.79;100.00;63287.88;5007743;28;20075;-73
2021/09/06 01:49:00;;;;;;;5.72;3.50;;;;;;;-140.79;100.00;63287.88;5012466;28;20022;-74
2021/09/06 01:51:26;;;;;;;6.03;3.72;;;;;;;-140.79;100.00;63287.88;5005712;28;20030;-73
2021/09/06 01:53:52;;;;;;;7.13;4.30;;;;;;;-140.79;100.00;63287.88;4988288;28;20049;-73
2021/09/06 01:56:17;;;;;;;8.02;4.03;;;;;;;-140.79;100.00;63287.88;5005863;28;20034;-73
2021/09/06 01:58:43;;;;;;;6.82;3.50;;;;;;;-140.79;100.00;63287.88;4988334;28;20022;-73
2021/09/06 02:01:08;;;;;;;5.38;3.75;;;;;;;-140.79;100.00;63287.88;4998257;28;20033;-72
2021/09/06 02:03:34;;;;;;;6.28;3.63;;;;;;;-140.79;100.00;63287.88;5025338;28;20451;-72
2021/09/06 02:05:59;;;;;;;7.18;4.15;;;;;;;-140.79;100.00;63287.88;5020320;28;20029;-72
2021/09/06 02:08:25;;;;;;;6.20;4.35;;;;;;;-140.79;100.00;63287.88;5007648;28;20021;-74
2021/09/06 02:10:50;;;;;;;8.00;4.00;;;;;;;-140.79;100.00;63287.88;5024256;28;20018;-72
2021/09/06 02:13:16;;;;;;;6.13;4.05;;;;;;;-140.79;100.00;63287.88;5025076;28;20037;-72
2021/09/06 02:15:41;;;;;;;6.65;4.47;;;;;;;-140.79;100.00;63287.88;4991080;28;20510;-74
2021/09/06 02:18:07;;;;;;;7.28;4.38;;;;;;;-140.79;100.00;63287.88;5013589;28;20349;-74
2021/09/06 02:20:32;;;;;;;6.95;4.60;;;;;;;-140.79;100.00;63287.88;5005591;28;20508;-73
2021/09/06 02:22:58;;;;;;;7.53;4.78;;;;;;;-140.79;100.00;63287.88;4986178;28;20042;-73
2021/09/06 02:25:23;;;;;;;8.10;4.53;;;;;;;-140.79;100.00;63287.88;5003977;28;20033;-73
2021/09/06 02:27:49;;;;;;;6.00;4.50;;;;;;;-140.79;100.00;63287.88;5008282;28;20032;-73
2021/09/06 02:30:14;;;;;;;6.80;4.53;;;;;;;-140.79;100.00;63287.88;5007260;28;20045;-73
2021/09/06 02:32:40;;;;;;;6.47;4.40;;;;;;;-140.79;100.00;63287.88;5022911;28;20484;-73
2021/09/06 02:35:05;;;;;;;6.97;4.68;;;;;;;-140.79;100.00;63287.88;5024753;28;20423;-74
2021/09/06 02:37:31;;;;;;;6.85;4.50;;;;;;;-140.79;100.00;63287.88;5022404;28;20036;-73
2021/09/06 02:39:56;;;;;;;9.27;5.07;;;;;;;-140.79;100.00;63287.88;5005324;28;20037;-73
2021/09/06 02:42:22;;;;;;;8.20;5.00;;;;;;;-140.79;100.00;63287.88;5005646;28;20033;-73
2021/09/06 02:44:48;;;;;;;6.50;4.30;;;;;;;-140.79;100.00;63287.88;5025114;28;20037;-72
2021/09/06 02:47:13;;;;;;;8.65;4.72;;;;;;;-140.79;100.00;63287.88;5011455;28;20076;-73
2021/09/06 02:49:38;;;;;;;8.75;4.53;;;;;;;-140.79;100.00;63287.88;5027971;28;20463;-73
2021/09/06 02:52:04;;;;;;;6.88;4.50;;;;;;;-140.79;100.00;63287.88;5010921;28;20094;-73
2021/09/06 02:54:29;;;;;;;6.75;4.60;;;;;;;-140.79;100.00;63287.88;5027914;28;20033;-74
2021/09/06 02:56:55;;;;;;;8.02;4.40;;;;;;;-140.79;100.00;63287.88;5026581;28;20029;-74
2021/09/06 02:59:20;;;;;;;7.80;4.43;;;;;;;-140.79;100.00;63287.88;5028670;28;20072;-73
2021/09/06 03:01:46;;;;;;;7.47;4.38;;;;;;;-140.79;100.00;63287.88;5009979;28;20021;-72
2021/09/06 03:04:11;;;;;;;6.15;3.83;;;;;;;-140.79;100.00;63287.88;5008571;28;20077;-73
2021/09/06 03:06:37;;;;;;;6.57;4.60;;;;;;;-140.79;100.00;63287.88;5021410;28;20026;-73
2021/09/06 03:09:02;;;;;;;6.22;4.20;;;;;;;-140.79;100.00;63287.88;5008106;28;20025;-73
2021/09/06 03:11:28;;;;;;;8.35;4.57;;;;;;;-140.79;100.00;63287.88;4989903;28;20046;-73
2021/09/06 03:13:53;;;;;;;8.85;3.97;;;;;;;-140.79;100.00;63287.88;5008803;28;20095;-74
2021/09/06 03:16:21;;;;;;;6.40;4.13;;;;;;;-140.79;100.00;63287.88;5008771;28;20566;-73
2021/09/06 03:18:47;;;;;;;7.43;4.43;;;;;;;-140.79;100.00;63287.88;5013830;28;20104;-73
2021/09/06 03:21:12;;;;;;;6.72;3.70;;;;;;;-140.79;100.00;63287.88;5028028;28;20103;-73
2021/09/06 03:23:38;;;;;;;6.07;4.13;;;;;;;-140.79;100.00;63287.88;5027633;28;20033;-73
2021/09/06 03:26:03;;;;;;;6.53;4.30;;;;;;;-140.79;100.00;63287.88;5010578;28;20604;-73
2021/09/06 03:28:29;;;;;;;7.05;4.25;;;;;;;-140.79;100.00;63287.88;5009511;28;20607;-73
2021/09/06 03:30:54;;;;;;;7.57;4.20;;;;;;;-140.79;100.00;63287.88;5028386;28;20688;-73
2021/09/06 03:33:20;;;;;;;6.18;4.07;;;;;;;-140.79;100.00;63287.88;5024520;28;20029;-72
2021/09/06 03:35:45;;;;;;;6.55;4.47;;;;;;;-140.79;100.00;63287.88;4990680;28;20026;-73
2021/09/06 03:38:11;;;;;;;6.82;4.03;;;;;;;-140.79;100.00;63287.88;5024945;28;20056;-73
2021/09/06 03:40:36;;;;;;;6.93;4.40;;;;;;;-140.79;100.00;63287.88;5027074;28;20037;-73
2021/09/06 03:43:02;;;;;;;6.53;3.70;;;;;;;-140.79;100.00;63287.88;5026868;28;20565;-73
2021/09/06 03:45:27;;;;;;;8.15;4.30;;;;;;;-140.79;100.00;63287.88;5027895;28;20033;-72
2021/09/06 03:47:53;;;;;;;7.13;4.13;;;;;;;-140.79;100.00;63287.88;5008917;28;20107;-72
2021/09/06 03:50:18;;;;;;;9.20;4.43;;;;;;;-140.79;100.00;63287.88;5027873;28;20029;-73
2021/09/06 03:52:44;;;;;;;6.55;4.50;;;;;;;-140.79;100.00;63287.88;5027347;28;20032;-72
2021/09/06 03:55:09;;;;;;;8.27;4.75;;;;;;;-140.79;100.00;63287.88;5010199;28;20029;-73
2021/09/06 03:57:35;;;;;;;6.25;4.53;;;;;;;-140.79;100.00;63287.88;5026085;28;20047;-73
2021/09/06 04:00:00;;;;;;;7.43;4.68;;;;;;;-140.79;100.00;63287.88;5027666;28;20630;-73
2021/09/06 04:02:26;;;;;;;9.02;4.68;;;;;;;-140.79;100.00;63287.88;5025643;28;20029;-73
2021/09/06 04:04:53;;;;;;;9.02;5.45;;;;;;;-140.79;100.00;63287.88;5027053;28;20029;-73
2021/09/06 04:07:19;;;;;;;6.25;4.63;;;;;;;-140.79;100.00;63287.88;5025468;28;20108;-73
2021/09/06 04:09:44;;;;;;;7.28;4.85;;;;;;;-140.79;100.00;63287.88;5026929;28;20131;-73
2021/09/06 04:12:10;;;;;;;8.20;4.70;;;;;;;-140.79;100.00;63287.88;5016126;28;20034;-73
2021/09/06 04:14:35;;;;;;;9.02;5.53;;;;;;;-140.79;100.00;63287.88;5006259;28;20507;-74
2021/09/06 04:17:01;;;;;;;10.07;5.32;;;;;;;-140.79;100.00;63287.88;5012972;28;20029;-73
2021/09/06 04:19:30;;;;;;;7.35;5.00;;;;;;;-140.79;100.00;63287.88;5027264;28;20040;-71
2021/09/06 04:21:56;;;;;;;8.50;5.13;;;;;;;-140.79;100.00;63287.88;5025414;28;20025;-73
2021/09/06 04:24:23;;;;;;;10.18;5.32;;;;;;;-140.79;100.00;63287.88;5026312;28;20048;-73
2021/09/06 04:26:49;;;;;;;8.13;5.20;;;;;;;-140.79;100.00;63287.88;5007850;28;20026;-72
2021/09/06 04:29:15;;;;;;;8.68;5.00;;;;;;;-140.79;100.00;63287.88;5027287;28;20583;-72
2021/09/06 04:31:40;;;;;;;7.60;4.93;;;;;;;-140.79;100.00;63287.88;5025322;28;20112;-73
2021/09/06 04:34:06;;;;;;;7.68;5.32;;;;;;;-140.79;100.00;63287.88;5026911;28;20061;-72
2021/09/06 04:36:31;;;;;;;7.07;4.63;;;;;;;-140.79;100.00;63287.88;5025167;28;20171;-73
2021/09/06 04:38:57;;;;;;;9.23;5.25;;;;;;;-140.79;100.00;63287.88;5006578;28;20041;-72
2021/09/06 04:41:22;;;;;;;9.88;5.35;;;;;;;-140.79;100.00;63287.88;5006237;28;20038;-72
2021/09/06 04:43:48;;;;;;;9.07;5.18;;;;;;;-140.79;100.00;63287.88;5023335;28;20029;-73
2021/09/06 04:46:14;;;;;;;8.73;5.20;;;;;;;-140.79;100.00;63287.88;5022888;28;20025;-73
2021/09/06 04:48:40;;;;;;;8.85;5.55;;;;;;;-140.79;100.00;63287.88;5002990;28;20026;-73
2021/09/06 04:51:05;;;;;;;9.77;5.85;;;;;;;-140.79;100.00;63287.88;5004866;28;20383;-72
2021/09/06 04:53:30;;;;;;;8.05;5.07;;;;;;;-140.79;100.00;63287.88;5022289;28;20036;-73
2021/09/06 04:55:56;;;;;;;8.57;5.50;;;;;;;-140.79;100.00;63287.88;4991967;28;20032;-73
2021/09/06 04:58:21;;;;;;;11.13;5.40;;;;;;;-140.79;100.00;63287.88;5005100;28;20088;-72
2021/09/06 05:00:47;;;;;;;9.48;5.55;;;;;;;-140.79;100.00;63287.88;5005809;28;20026;-73
2021/09/06 05:03:12;;;;;;;8.93;5.53;;;;;;;-140.79;100.00;63287.88;4987342;28;20141;-72
2021/09/06 05:05:38;;;;;;;9.02;5.63;;;;;;;-140.79;100.00;63287.88;5005929;28;20026;-74
2021/09/06 05:08:03;;;;;;;10.23;5.43;;;;;;;-140.79;100.00;63287.88;5003271;28;20022;-72
2021/09/06 05:10:29;;;;;;;8.93;5.85;;;;;;;-140.79;100.00;63287.88;5004896;28;20029;-72
2021/09/06 05:12:54;;;;;;;9.73;5.30;;;;;;;-140.79;100.00;63287.88;4998512;28;20038;-75
2021/09/06 05:15:20;;;;;;;8.30;5.50;;;;;;;-140.79;100.00;63287.88;5005709;28;20036;-73
2021/09/06 05:17:45;;;;;;;9.00;5.65;;;;;;;-140.79;100.00;63287.88;5005954;28;20029;-75
2021/09/06 05:20:11;;;;;;;8.45;5.80;;;;;;;-140.79;100.00;63287.88;4983784;28;20038;-73
2021/09/06 05:22:36;;;;;;;10.88;5.35;;;;;;;-140.79;100.00;63287.88;5004762;28;20156;-73
2021/09/06 05:25:02;;;;;;;7.70;5.18;;;;;;;-140.79;100.00;63287.88;4988566;28;20860;-74
2021/09/06 05:27:28;;;;;;;8.43;5.28;;;;;;;-140.79;100.00;63287.88;4994482;28;20100;-79
2021/09/06 05:29:53;;;;;;;7.70;5.10;;;;;;;-140.79;100.00;63287.88;4992290;28;20489;-78
2021/09/06 05:32:18;;;;;;;8.25;5.35;;;;;;;-140.79;100.00;63287.88;4983791;28;20397;-78
2021/09/06 05:34:44;;;;;;;8.65;5.63;;;;;;;-140.79;100.00;63287.88;4989897;28;20892;-76
2021/09/06 05:37:09;;;;;;;9.43;5.07;;;;;;;-140.79;100.00;63287.88;4987530;28;20041;-78
2021/09/06 05:39:35;;;;;;;9.32;5.70;;;;;;;-140.79;100.00;63287.88;4990010;28;20027;-73
2021/09/06 05:42:00;;;;;;;7.05;4.90;;;;;;;-140.79;100.00;63287.88;4988405;28;20045;-72
2021/09/06 05:44:26;;;;;;;10.07;5.57;;;;;;;-140.79;100.00;63287.88;4969317;28;20030;-73
2021/09/06 05:46:51;;;;;;;8.65;5.45;;;;;;;-140.79;100.00;63287.88;4985521;28;20014;-71
2021/09/06 05:49:17;;;;;;;8.65;5.47;;;;;;;-140.79;100.00;63287.88;4989618;28;20015;-72
2021/09/06 05:51:42;;;;;;;7.97;5.32;;;;;;;-140.79;100.00;63287.88;4991488;28;20034;-72
2021/09/06 05:54:08;;;;;;;9.15;5.45;;;;;;;-140.79;100.00;63287.88;4983989;28;20034;-75
2021/09/06 05:56:34;;;;;;;7.65;5.13;;;;;;;-140.79;100.00;63287.88;4986441;28;20028;-72
2021/09/06 05:58:59;;;;;;;8.02;5.13;;;;;;;-140.79;100.00;63287.88;4986069;28;20023;-72
2021/09/06 06:01:24;;;;;;;8.00;5.45;;;;;;;-140.79;100.00;63287.88;4987778;28;20101;-72
2021/09/06 06:03:50;;;;;;;9.23;5.82;;;;;;;-140.79;100.00;63287.88;4986926;28;20049;-73
2021/09/06 06:06:17;;;;;;;9.77;5.10;;;;;;;-140.79;100.00;63287.88;4984241;28;20018;-78
2021/09/06 06:08:42;;;;;;;9.02;5.63;;;;;;;-140.79;100.00;63287.88;4970479;28;20444;-76
2021/09/06 06:11:07;;;;;;;9.20;5.60;;;;;;;-140.79;100.00;63287.88;4983648;28;20033;-73
2021/09/06 06:13:33;;;;;;;8.65;5.13;;;;;;;-140.79;100.00;63287.88;4985802;28;20022;-75
2021/09/06 06:15:58;;;;;;;8.32;5.60;;;;;;;-140.79;100.00;63287.88;4987358;28;20041;-73
2021/09/06 06:18:24;;;;;;;10.90;5.60;;;;;;;-140.79;100.00;63287.88;4983833;28;20026;-74
2021/09/06 06:20:49;;;;;;;7.90;4.82;;;;;;;-140.79;100.00;63287.88;4987585;28;20030;-74
2021/09/06 06:23:15;;;;;;;10.63;5.50;;;;;;;-140.79;100.00;63287.88;4982978;28;20026;-78
2021/09/06 06:25:40;;;;;;;8.63;4.95;;;;;;;-140.79;100.00;63287.88;4994719;28;20036;-74
2021/09/06 06:28:07;;;;;;;8.60;5.45;;;;;;;-140.79;100.00;63287.88;4985150;28;20097;-73
2021/09/06 06:30:32;;;;;;;9.27;5.43;;;;;;;-140.79;100.00;63287.88;4985689;28;20030;-74
2021/09/06 06:32:58;;;;;;;9.77;5.88;;;;;;;-140.79;100.00;63287.88;4994706;28;20038;-73
2021/09/06 06:35:23;;;;;;;9.93;5.35;;;;;;;-140.79;100.00;63287.88;4992415;28;20014;-72
2021/09/06 06:37:48;;;;;;;10.27;5.30;;;;;;;-140.79;100.00;63287.88;5004255;28;20088;-73
2021/09/06 06:40:14;;;;;;;8.95;5.18;;;;;;;-140.79;100.00;63287.88;4987044;28;20033;-72
2021/09/06 06:42:40;;;;;;;9.60;5.95;;;;;;;-140.79;100.00;63287.88;5004772;28;20026;-73
2021/09/06 06:45:06;;;;;;;8.85;5.65;;;;;;;-140.79;100.00;63287.88;4986437;28;20401;-69
2021/09/06 06:47:31;;;;;;;8.68;5.43;;;;;;;-140.79;100.00;63287.88;5004772;28;20574;-72
2021/09/06 06:49:56;;;;;;;9.23;5.65;;;;;;;-140.79;100.00;63287.88;5004532;28;20480;-70
2021/09/06 06:52:22;;;;;;;8.68;5.18;;;;;;;-140.79;100.00;63287.88;4986170;28;20624;-71
2021/09/06 06:54:47;;;;;;;9.50;5.35;;;;;;;-140.79;100.00;63287.88;4987212;28;20519;-72
2021/09/06 06:57:13;;;;;;;9.80;5.50;;;;;;;-140.79;100.00;63287.88;5004679;28;20028;-71
2021/09/06 06:59:38;;;;;;;9.05;5.53;;;;;;;-140.79;100.00;63287.88;4998578;28;20041;-73
2021/09/06 07:02:04;;;;;;;10.88;4.90;;;;;;;-140.79;100.00;63287.88;4990373;28;20492;-72
2021/09/06 07:04:29;;;;;;;8.68;5.50;;;;;;;-140.79;100.00;63287.88;4986338;28;20379;-73
2021/09/06 07:06:55;;;;;;;9.70;5.43;;;;;;;-140.79;100.00;63287.88;4992986;28;20578;-71
2021/09/06 07:09:20;;;;;;;9.13;5.18;;;;;;;-140.79;100.00;63287.88;4986240;28;20559;-80
2021/09/06 07:11:46;;;;;;;8.90;5.18;;;;;;;-140.79;100.00;63287.88;5004703;28;20531;-77
2021/09/06 07:14:11;;;;;;;10.77;5.22;;;;;;;-140.79;100.00;63287.88;5004623;28;20496;-75
2021/09/06 07:16:37;;;;;;;9.18;5.18;;;;;;;-140.79;100.00;63287.88;5004354;28;20040;-76
2021/09/06 07:19:02;;;;;;;8.90;5.32;;;;;;;-140.79;100.00;63287.88;4993004;28;20594;-72
2021/09/06 07:21:28;;;;;;;6.97;4.97;;;;;;;-140.79;100.00;63287.88;4986838;28;20026;-76
2021/09/06 07:23:53;;;;;;;8.57;5.10;;;;;;;-140.79;100.00;63287.88;5000388;28;20183;-74
2021/09/06 07:26:19;;;;;;;8.48;5.07;;;;;;;-140.79;100.00;63287.88;5004716;28;20026;-78
2021/09/06 07:28:44;;;;;;;8.10;4.97;;;;;;;-140.79;100.00;63287.88;4976648;28;20409;-76
2021/09/06 07:31:10;;;;;;;7.78;4.82;;;;;;;-140.79;100.00;63287.88;5004671;28;20492;-76
2021/09/06 07:33:36;;;;;;;9.27;5.18;;;;;;;-140.79;100.00;63287.88;5007534;28;20022;-75
2021/09/06 07:36:02;;;;;;;8.75;5.18;;;;;;;-140.79;100.00;63287.88;4990953;28;20681;-78
2021/09/06 07:38:28;;;;;;;9.07;5.50;;;;;;;-140.79;100.00;63287.88;5007575;28;20025;-72
2021/09/06 07:40:53;;;;;;;9.77;5.10;;;;;;;-140.79;100.00;63287.88;5007918;28;20451;-77
2021/09/06 07:43:20;;;;;;;9.25;5.47;;;;;;;-140.79;100.00;63287.88;5006201;28;20562;-73
2021/09/06 07:45:46;;;;;;;7.32;4.63;;;;;;;-140.79;100.00;63287.88;5007648;28;20037;-73
2021/09/06 07:48:13;;;;;;;7.65;4.90;;;;;;;-140.79;100.00;63287.88;4990289;28;20108;-73
2021/09/06 07:50:39;;;;;;;7.55;4.85;;;;;;;-140.79;100.00;63287.88;5007945;28;20034;-73
2021/09/06 07:53:05;;;;;;;8.45;4.90;;;;;;;-140.79;100.00;63287.88;5004748;28;20092;-77
2021/09/06 07:55:30;;;;;;;7.35;4.85;;;;;;;-140.79;100.00;63287.88;4989614;28;20026;-72
2021/09/06 07:57:56;;;;;;;8.38;5.43;;;;;;;-140.79;100.00;63287.88;5007542;28;20053;-77
2021/09/06 08:00:21;;;;;;;8.52;4.93;;;;;;;-140.79;100.00;63287.88;5007675;28;20025;-81
2021/09/06 08:02:50;;;;;;;7.82;4.45;;;;;;;-140.79;100.00;63287.88;5007538;28;20550;-78
2021/09/06 08:05:23;;;;;;;7.05;4.55;;;;;;;-140.79;100.00;63287.88;4990610;28;20038;-75
2021/09/06 08:07:49;;;;;;;9.07;5.00;;;;;;;-140.79;100.00;63287.88;5007265;28;20030;-77
2021/09/06 08:10:15;;;;;;;8.88;4.97;;;;;;;-140.79;100.00;63287.88;4989980;28;20033;-79
2021/09/06 08:12:40;;;;;;;6.72;4.55;;;;;;;-140.79;100.00;63287.88;4989866;28;20041;-78
2021/09/06 08:15:07;;;;;;;6.60;4.10;;;;;;;-140.79;100.00;63287.88;5007368;28;20018;-81
2021/09/06 08:17:34;;;;;;;7.80;4.78;;;;;;;-140.79;100.00;63287.88;5007911;28;20113;-77
2021/09/06 08:20:03;;;;;;;7.47;4.57;;;;;;;-140.79;100.00;63287.88;5007708;28;20033;-84
2021/09/06 08:22:28;;;;;;;7.93;4.60;;;;;;;-140.79;100.00;63287.88;4990081;28;20040;-80
2021/09/06 08:24:53;;;;;;;8.82;4.97;;;;;;;-140.79;100.00;63287.88;5007172;28;20029;-79
2021/09/06 08:27:21;;;;;;;7.07;4.70;;;;;;;-140.79;100.00;63287.88;5007070;28;20018;-80
2021/09/06 08:29:47;;;;;;;7.75;4.38;;;;;;;-140.79;100.00;63287.88;5007110;28;20036;-78
2021/09/06 08:32:13;;;;;;;8.10;4.13;;;;;;;-140.79;100.00;63287.88;5007075;28;20034;-82
2021/09/06 08:34:38;;;;;;;5.90;3.95;;;;;;;-140.79;100.00;63287.88;4973474;28;20018;-78
2021/09/06 08:37:04;;;;;;;6.28;4.15;;;;;;;-140.79;100.00;63287.88;4989078;28;20052;-81
2021/09/06 08:39:29;;;;;;;7.13;4.10;;;;;;;-140.79;100.00;63287.88;4973029;28;20428;-78
2021/09/06 08:41:55;;;;;;;9.48;4.22;;;;;;;-140.79;100.00;63287.88;5007018;28;20033;-78
2021/09/06 08:44:23;;;;;;;7.68;4.47;;;;;;;-140.79;100.00;63287.88;5006645;28;20053;-79
2021/09/06 08:46:49;;;;;;;6.05;4.10;;;;;;;-140.79;100.00;63287.88;4989563;28;20037;-84
2021/09/06 08:49:14;;;;;;;6.50;3.78;;;;;;;-140.79;100.00;63287.88;5005424;28;20048;-79
2021/09/06 08:51:39;;;;;;;7.63;3.90;;;;;;;-140.79;100.00;63287.88;4988212;28;20022;-78
2021/09/06 08:54:05;;;;;;;5.57;4.25;;;;;;;-140.79;100.00;63287.88;5005879;28;20025;-83
2021/09/06 08:56:31;;;;;;;6.20;4.10;;;;;;;-140.79;100.00;63287.88;5006952;28;20048;-80
2021/09/06 08:58:57;;;;;;;7.50;4.13;;;;;;;-140.79;100.00;63287.88;5007095;28;20034;-77
2021/09/06 09:01:22;;;;;;;7.15;4.43;;;;;;;-140.79;100.00;63287.88;5006217;28;20516;-78
2021/09/06 09:03:47;;;;;;;7.10;4.50;;;;;;;-140.79;100.00;63287.88;5002571;28;20085;-81
2021/09/06 09:06:13;;;;;;;5.85;4.00;;;;;;;-140.79;100.00;63287.88;5005014;28;20025;-80
2021/09/06 09:08:39;;;;;;;8.13;4.60;;;;;;;-140.79;100.00;63287.88;5006255;28;20021;-75
2021/09/06 09:11:06;;;;;;;7.10;4.30;;;;;;;-140.79;100.00;63287.88;5005732;28;20397;-74
2021/09/06 09:13:37;;;;;;;6.32;4.00;;;;;;;-140.79;100.00;63287.88;4997762;28;20037;-74
2021/09/06 09:16:03;;;;;;;5.85;3.95;;;;;;;-140.79;100.00;63287.88;4985574;28;20458;-70
2021/09/06 09:18:33;;;;;;;7.88;4.13;;;;;;;-140.79;100.00;63287.88;4982989;28;20607;-71
2021/09/06 09:21:04;;;;;;;6.90;4.00;;;;;;;-140.79;100.00;63287.88;4985734;28;20053;-72
2021/09/06 09:23:39;;;;;;;6.35;3.97;;;;;;;-140.79;100.00;63287.88;4986068;28;20022;-71
2021/09/06 09:26:04;;;;;;;6.95;4.45;;;;;;;-140.79;100.00;63287.88;4987806;28;20420;-73
2021/09/06 09:28:30;;;;;;;6.40;3.80;;;;;;;-140.79;100.00;63287.88;4989029;28;20022;-75
2021/09/06 09:31:08;;;;;;;5.65;4.07;;;;;;;-140.79;100.00;63287.88;4969441;28;20113;-75
2021/09/06 09:33:38;;;;;;;5.43;4.00;;;;;;;-140.79;100.00;63287.88;4986781;28;20052;-73
2021/09/06 09:36:04;;;;;;;7.90;4.00;;;;;;;-140.79;100.00;63287.88;4985226;28;20034;-72
2021/09/06 09:38:34;;;;;;;7.00;4.10;;;;;;;-140.79;100.00;63287.88;4990660;28;20511;-69
2021/09/06 09:40:59;;;;;;;6.30;4.10;;;;;;;-140.79;100.00;63287.88;4987917;28;20088;-73
2021/09/06 09:43:29;;;;;;;5.95;3.97;;;;;;;-140.79;100.00;63287.88;4991877;28;20030;-73
2021/09/06 09:46:04;;;;;;;6.32;3.70;;;;;;;-140.79;100.00;63287.88;4969217;28;20744;-72
2021/09/06 09:48:29;;;;;;;5.82;3.80;;;;;;;-140.79;100.00;63287.88;4986094;28;20026;-73
2021/09/06 09:50:55;;;;;;;6.57;4.03;;;;;;;-140.79;100.00;63287.88;4984109;28;20512;-73
2021/09/06 09:53:21;;;;;;;7.00;3.72;;;;;;;-140.79;100.00;63287.88;4987411;28;20030;-75
2021/09/06 09:55:46;;;;;;;6.72;4.40;;;;;;;-140.79;100.00;63287.88;5004847;28;20026;-72
2021/09/06 09:58:13;;;;;;;6.57;4.30;;;;;;;-140.79;100.00;63287.88;4988956;28;20034;-72
2021/09/06 10:00:40;;;;;;;6.97;4.68;;;;;;;-140.79;100.00;63287.88;4994424;28;20037;-74
2021/09/06 10:03:05;;;;;;;7.82;4.40;;;;;;;-140.79;100.00;63287.88;4993820;28;20062;-72
2021/09/06 10:05:31;;;;;;;8.15;4.88;;;;;;;-140.79;100.00;63287.88;4975703;28;20791;-73
2021/09/06 10:07:57;;;;;;;6.72;4.90;;;;;;;-140.79;100.00;63287.88;4986595;28;20014;-71
2021/09/06 10:10:24;;;;;;;9.25;5.18;;;;;;;-140.79;100.00;63287.88;5004876;28;20042;-76
2021/09/06 10:13:04;;;;;;;7.53;4.72;;;;;;;-140.79;100.00;63287.88;4979841;28;20443;-75
2021/09/06 10:15:30;;;;;;;8.95;4.90;;;;;;;-140.79;100.00;63287.88;4987263;28;20018;-73
2021/09/06 10:17:55;;;;;;;7.70;4.53;;;;;;;-140.79;100.00;63287.88;4986707;28;20033;-72
2021/09/06 10:20:22;;;;;;;8.55;4.57;;;;;;;-140.79;100.00;63287.88;4986465;28;20026;-78
2021/09/06 10:23:00;;;;;;;8.13;4.30;;;;;;;-140.79;100.00;63287.88;4995890;28;20033;-70
2021/09/06 10:25:28;;;;;;;5.97;4.00;;;;;;;-140.79;100.00;63287.88;4986780;28;20116;-71
2021/09/06 10:27:57;;;;;;;7.43;4.07;;;;;;;-140.79;100.00;63287.88;5003544;28;20127;-73
2021/09/06 10:30:43;;;;;;;8.13;3.90;;;;;;;-140.79;100.00;63287.88;5003894;28;20646;-73
2021/09/06 10:33:38;;;;;;;6.95;4.53;;;;;;;-140.79;100.00;63287.88;5004460;28;20092;-73
2021/09/06 10:36:17;;;;;;;6.97;4.05;;;;;;;-140.79;100.00;63287.88;5001600;28;20053;-72
2021/09/06 10:38:47;;;;;;;8.73;4.90;;;;;;;-140.79;100.00;63287.88;5003762;28;20038;-72
2021/09/06 10:41:19;;;;;;;;;;;;;;;-140.79;100.00;63287.88;4972188;28;20030;-73
2021/09/06 10:43:52;;;;;;;8.13;4.57;;;;;;;-140.79;100.00;63287.88;5005164;28;19909;-72
2021/09/06 10:46:20;;;;;;;8.40;4.30;;;;;;;-140.79;100.00;63287.88;5004699;28;20041;-73
2021/09/06 10:48:49;;;;;;;7.03;3.90;;;;;;;-140.79;100.00;63287.88;4987440;28;20038;-72
2021/09/06 10:51:31;;;;;;;7.75;4.05;;;;;;;-140.79;100.00;63287.88;4987247;28;20187;-71
2021/09/06 10:53:58;;;;;;;6.40;3.60;;;;;;;-140.79;100.00;63287.88;4986847;28;20064;-71
2021/09/06 10:56:27;;;;;;;6.15;3.38;;;;;;;-140.79;100.00;63287.88;5004940;28;20033;-72
2021/09/06 10:58:54;;;;;;;5.43;3.72;;;;;;;-140.79;100.00;63287.88;4987069;28;20045;-71
2021/09/06 11:01:19;;;;;;;8.70;3.80;;;;;;;-140.79;100.00;63287.88;5004429;28;20562;-73
2021/09/06 11:03:46;;;;;;;7.47;3.80;;;;;;;-140.79;100.00;63287.88;5004980;28;20049;-74
2021/09/06 11:06:11;;;;;;;7.00;3.92;;;;;;;-140.79;100.00;63287.88;4988151;28;20022;-73